Time;durP1;ratioP1;P1;durP2;ratioP2;P2;SDS_P1;SDS_P2;PMS_P1;PMS_P2;Temp;Humidity;BMP_temperature;BMP_pressure;BME280_temperature;BME280_humidity;BME280_pressure;Samples;Min_cycle;Max_cycle;Signal;HPM_P1;HPM_P2
2023/08/18 00:01:31;;;;;;;;;;;;;;;22.87;57.10;101862.75;5067059;28;19944;-43
2023/08/18 00:03:57;;;;;;;;;;;;;;;22.87;57.05;101868.19;5067054;28;19944;-48
2023/08/18 00:06:22;;;;;;;;;;;;;;;22.87;56.81;101862.75;5066193;28;20409;-46
2023/08/18 00:08:47;;;;;;;;;;;;;;;22.87;56.77;101861.91;5066669;28;19920;-44
2023/08/18 00:11:12;;;;;;;;;;;;;;;22.86;56.90;101861.06;5064320;28;19916;-44
2023/08/18 00:13:38;;;;;;;;;;;;;;;22.87;56.85;101857.34;5066606;28;20059;-47
2023/08/18 00:16:03;;;;;;;;;;;;;;;22.86;56.78;101860.22;5066310;28;19928;-45
2023/08/18 00:18:29;;;;;;;;;;;;;;;22.85;56.78;101853.09;5066742;28;19923;-43
2023/08/18 00:20:54;;;;;;;;;;;;;;;22.85;56.74;101853.97;5066778;28;19917;-44
2023/08/18 00:23:19;;;;;;;;;;;;;;;22.85;56.78;101855.78;5066199;28;19928;-48
2023/08/18 00:25:44;;;;;;;;;;;;;;;22.85;56.89;101853.97;5065973;28;19916;-48
2023/08/18 00:28:09;;;;;;;;;;;;;;;22.85;56.73;101850.38;5066455;28;19920;-46
2023/08/18 00:30:35;;;;;;;;;;;;;;;22.84;56.95;101845.97;5066329;28;19916;-46
2023/08/18 00:33:00;;;;;;;;;;;;;;;22.85;56.56;101848.53;5066441;28;19921;-44
2023/08/18 00:35:25;;;;;;;;;;;;;;;22.85;56.83;101842.25;5065664;28;19912;-45
2023/08/18 00:37:50;;;;;;;;;;;;;;;22.84;56.80;101835.97;5066045;28;19913;-45
2023/08/18 00:40:16;;;;;;;;;;;;;;;22.83;56.67;101845.13;5065546;28;19921;-45
2023/08/18 00:42:41;;;;;;;;;;;;;;;22.83;56.87;101845.13;5066357;28;19916;-45
2023/08/18 00:45:07;;;;;;;;;;;;;;;22.83;56.68;101847.84;5065867;28;19927;-44
2023/08/18 00:47:32;;;;;;;;;;;;;;;22.82;56.89;101850.75;5066315;28;19923;-43
2023/08/18 00:49:57;;;;;;;;;;;;;;;22.83;56.54;101847.84;5065957;28;19912;-45
2023/08/18 00:52:23;;;;;;;;;;;;;;;22.83;56.84;101850.56;5066437;28;19924;-46
2023/08/18 00:54:48;;;;;;;;;;;;;;;22.82;56.76;101848.03;5065506;28;19920;-44
2023/08/18 00:57:13;;;;;;;;;;;;;;;22.82;56.58;101848.88;5098145;28;19923;-45
2023/08/18 00:59:38;;;;;;;;;;;;;;;22.83;56.71;101855.13;5098175;28;19948;-46
2023/08/18 01:02:04;;;;;;;;;;;;;;;22.81;56.51;101847.19;5066171;28;20003;-44
2023/08/18 01:04:30;;;;;;;;;;;;;;;22.81;56.49;101852.59;5065485;28;20273;-44
2023/08/18 01:06:55;;;;;;;;;;;;;;;22.81;56.59;101858.03;5065153;28;19992;-44
2023/08/18 01:09:21;;;;;;;;;;;;;;;22.82;56.65;101858.88;5098210;28;19913;-45
2023/08/18 01:11:47;;;;;;;;;;;;;;;22.81;56.68;101855.31;5097914;28;20339;-46
2023/08/18 01:14:18;;;;;;;;;;;;;;;22.80;56.54;101853.59;5063003;28;20402;-46
2023/08/18 01:16:55;;;;;;;;;;;;;;;22.80;56.41;101840.03;5097979;28;19927;-43
2023/08/18 01:19:20;;;;;;;;;;;;;;;22.80;56.38;101844.63;5096574;28;19982;-44
2023/08/18 01:21:45;;;;;;;;;;;;;;;22.80;56.63;101841.91;5064424;28;20377;-44
2023/08/18 01:24:11;;;;;;;;;;;;;;;22.79;56.70;101842.94;5097879;28;19951;-43
2023/08/18 01:26:36;;;;;;;;;;;;;;;22.79;56.58;101838.34;5065019;28;19959;-45
2023/08/18 01:29:01;;;;;;;;;;;;;;;22.79;56.35;101835.66;5065517;28;20047;-49
2023/08/18 01:31:28;;;;;;;;;;;;;;;22.79;56.32;101829.38;5097130;28;19923;-51
2023/08/18 01:33:53;;;;;;;;;;;;;;;22.79;56.65;101815.81;5064455;28;19956;-50
2023/08/18 01:36:20;;;;;;;;;;;;;;;22.78;56.64;101820.41;5097003;28;19924;-47
2023/08/18 01:38:46;;;;;;;;;;;;;;;22.78;56.64;101823.13;5097769;28;19913;-51
2023/08/18 01:41:11;;;;;;;;;;;;;;;22.77;56.75;101813.28;5063807;28;19920;-48
2023/08/18 01:43:37;;;;;;;;;;;;;;;22.77;56.67;101809.72;5097521;28;19967;-50
2023/08/18 01:46:02;;;;;;;;;;;;;;;22.78;56.40;101811.44;5064460;28;19963;-45
2023/08/18 01:48:27;;;;;;;;;;;;;;;22.78;56.56;101808.72;5065253;28;20026;-49
2023/08/18 01:50:52;;;;;;;;;;;;;;;22.77;56.31;101802.44;5063213;28;19966;-49
2023/08/18 01:53:18;;;;;;;;;;;;;;;22.76;56.55;101792.59;5064924;28;19948;-50
2023/08/18 01:55:43;;;;;;;;;;;;;;;22.77;56.47;101796.16;5064516;28;19920;-48
2023/08/18 01:58:08;;;;;;;;;;;;;;;22.76;56.40;101795.31;5065065;28;19939;-46
2023/08/18 02:00:33;;;;;;;;;;;;;;;22.76;56.35;101797.19;5064167;28;19920;-48
2023/08/18 02:02:58;;;;;;;;;;;;;;;22.75;56.37;101793.63;5065136;28;20604;-46
2023/08/18 02:05:23;;;;;;;;;;;;;;;22.75;56.56;101795.50;5064097;28;20346;-47
2023/08/18 02:07:49;;;;;;;;;;;;;;;22.75;56.67;101788.22;5064644;28;19916;-50
2023/08/18 02:10:14;;;;;;;;;;;;;;;22.75;56.45;101787.38;5063837;28;19920;-48
2023/08/18 02:12:39;;;;;;;;;;;;;;;22.74;56.40;101782.97;5064695;28;19924;-46
2023/08/18 02:15:05;;;;;;;;;;;;;;;22.74;56.61;101786.53;5064464;28;19917;-45
2023/08/18 02:17:30;;;;;;;;;;;;;;;22.74;56.23;101770.25;5064844;28;19920;-44
2023/08/18 02:19:58;;;;;;;;;;;;;;;22.74;56.25;101774.84;5064421;28;20433;-46
2023/08/18 02:22:24;;;;;;;;;;;;;;;22.74;56.44;101772.13;5064535;28;19928;-45
2023/08/18 02:24:49;;;;;;;;;;;;;;;22.73;56.45;101767.72;5064132;28;19921;-46
2023/08/18 02:27:14;;;;;;;;;;;;;;;22.73;56.45;101774.00;5064055;28;19916;-46
2023/08/18 02:29:39;;;;;;;;;;;;;;;22.73;56.46;101776.72;5063970;28;19924;-46
2023/08/18 02:32:05;;;;;;;;;;;;;;;22.71;56.40;101763.31;5070054;28;19924;-46
2023/08/18 02:34:30;;;;;;;;;;;;;;;22.71;56.22;101766.00;5063779;28;19947;-45
2023/08/18 02:36:55;;;;;;;;;;;;;;;22.71;56.38;101768.72;5064055;28;19935;-47
2023/08/18 02:39:20;;;;;;;;;;;;;;;22.71;56.42;101765.16;5063859;28;19924;-45
2023/08/18 02:41:47;;;;;;;;;;;;;;;22.70;56.07;101767.03;5063609;28;19913;-44
2023/08/18 02:44:12;;;;;;;;;;;;;;;22.70;56.32;101758.06;5064410;28;19920;-45
2023/08/18 02:46:37;;;;;;;;;;;;;;;22.71;56.27;101757.03;5063775;28;19984;-45
2023/08/18 02:49:02;;;;;;;;;;;;;;;22.69;56.48;101765.34;5062760;28;19944;-44
2023/08/18 02:51:28;;;;;;;;;;;;;;;22.69;56.14;101759.94;5063957;28;19917;-47
2023/08/18 02:53:53;;;;;;;;;;;;;;;22.69;56.35;101756.38;5063804;28;19913;-44
2023/08/18 02:56:18;;;;;;;;;;;;;;;22.70;56.07;101758.06;5063039;28;19917;-46
2023/08/18 02:58:43;;;;;;;;;;;;;;;22.68;56.24;101757.38;5064244;28;19972;-46
2023/08/18 03:01:09;;;;;;;;;;;;;;;22.68;56.24;101752.81;5063420;28;19920;-45
2023/08/18 03:03:34;;;;;;;;;;;;;;;22.68;56.34;101755.53;5063674;28;19920;-45
2023/08/18 03:06:00;;;;;;;;;;;;;;;22.68;56.16;101760.09;5062784;28;20696;-47
2023/08/18 03:08:25;;;;;;;;;;;;;;;22.66;56.44;101765.69;5063997;28;19972;-43
2023/08/18 03:10:58;;;;;;;;;;;;;;;22.66;56.26;101762.97;5063407;28;19912;-45
2023/08/18 03:13:23;;;;;;;;;;;;;;;22.66;56.28;101762.97;5063252;28;19927;-44
2023/08/18 03:15:48;;;;;;;;;;;;;;;22.67;56.41;101766.53;5063787;28;19944;-47
2023/08/18 03:18:13;;;;;;;;;;;;;;;22.66;56.41;101756.72;5063982;28;19959;-45
2023/08/18 03:20:39;;;;;;;;;;;;;;;22.66;56.14;101762.13;5063483;28;19940;-44
2023/08/18 03:23:04;;;;;;;;;;;;;;;22.65;56.38;101777.56;5063822;28;19972;-46
2023/08/18 03:25:29;;;;;;;;;;;;;;;22.65;56.10;101774.84;5062531;28;20016;-44
2023/08/18 03:27:54;;;;;;;;;;;;;;;22.65;56.23;101774.00;5063839;28;19909;-49
2023/08/18 03:30:19;;;;;;;;;;;;;;;22.64;56.11;101767.75;5063134;28;19948;-47
2023/08/18 03:32:47;;;;;;;;;;;;;;;22.65;56.20;101768.59;5063892;28;19920;-49
2023/08/18 03:35:12;;;;;;;;;;;;;;;22.64;56.17;101775.00;5094879;28;19917;-48
2023/08/18 03:37:37;;;;;;;;;;;;;;;22.63;56.14;101773.31;5063754;28;19913;-47
2023/08/18 03:40:04;;;;;;;;;;;;;;;22.63;56.05;101776.03;5061912;28;19917;-47
2023/08/18 03:42:29;;;;;;;;;;;;;;;22.63;56.20;101773.31;5060018;28;19913;-44
2023/08/18 03:44:54;;;;;;;;;;;;;;;22.62;56.03;101758.94;5063614;28;19920;-47
2023/08/18 03:47:20;;;;;;;;;;;;;;;22.64;56.39;101769.59;5063253;28;19927;-45
2023/08/18 03:49:45;;;;;;;;;;;;;;;22.62;56.26;101764.34;5063197;28;20324;-45
2023/08/18 03:52:10;;;;;;;;;;;;;;;22.63;56.33;101765.19;5063705;28;20003;-44
2023/08/18 03:54:36;;;;;;;;;;;;;;;22.62;56.21;101764.34;5063268;28;19913;-43
2023/08/18 03:57:02;;;;;;;;;;;;;;;22.61;56.26;101754.53;5063138;28;19917;-44
2023/08/18 03:59:27;;;;;;;;;;;;;;;22.61;56.19;101762.66;5062906;28;19923;-45
2023/08/18 04:01:52;;;;;;;;;;;;;;;22.61;56.27;101762.66;5062038;28;19975;-46
2023/08/18 04:04:17;;;;;;;;;;;;;;;22.60;56.32;101763.69;5063145;28;19916;-45
2023/08/18 04:06:42;;;;;;;;;;;;;;;22.61;56.09;101776.22;5063020;28;19916;-45
2023/08/18 04:09:13;;;;;;;;;;;;;;;22.60;56.14;101770.94;5066121;28;19912;-44
2023/08/18 04:11:39;;;;;;;;;;;;;;;22.60;55.95;101771.81;5066558;28;19917;-44
2023/08/18 04:14:05;;;;;;;;;;;;;;;22.59;56.09;101770.09;5066905;28;19971;-48
2023/08/18 04:16:32;;;;;;;;;;;;;;;22.60;56.21;101762.81;5066518;28;19948;-48
2023/08/18 04:18:58;;;;;;;;;;;;;;;22.59;56.08;101761.97;5066879;28;19916;-46
2023/08/18 04:21:24;;;;;;;;;;;;;;;22.59;56.16;101758.41;5066698;28;19913;-48
2023/08/18 04:23:49;;;;;;;;;;;;;;;22.58;56.27;101754.88;5064612;28;19921;-45
2023/08/18 04:26:16;;;;;;;;;;;;;;;22.59;55.92;101747.56;5061936;28;20228;-49
2023/08/18 04:28:41;;;;;;;;;;;;;;;22.58;56.11;101749.44;5064869;28;19939;-47
2023/08/18 04:31:06;;;;;;;;;;;;;;;22.58;56.17;101749.44;5066115;28;19917;-44
2023/08/18 04:33:31;;;;;;;;;;;;;;;22.59;56.10;101742.16;5066604;28;19940;-43
2023/08/18 04:35:57;;;;;;;;;;;;;;;22.58;56.22;101745.88;5065285;28;19913;-44
2023/08/18 04:38:22;;;;;;;;;;;;;;;22.57;56.23;101755.91;5066558;28;19916;-44
2023/08/18 04:40:57;;;;;;;;;;;;;;;22.58;56.47;101752.16;5065819;28;19939;-44
2023/08/18 04:43:22;;;;;;;;;;;;;;;22.58;56.40;101757.56;5066152;28;19913;-45
2023/08/18 04:45:48;;;;;;;;;;;;;;;22.58;56.33;101759.44;5065709;28;19924;-45
2023/08/18 04:48:13;;;;;;;;;;;;;;;22.58;56.54;101762.16;5066443;28;19913;-43
2023/08/18 04:50:38;;;;;;;;;;;;;;;22.57;56.43;101755.06;5065905;28;19917;-44
2023/08/18 04:53:04;;;;;;;;;;;;;;;22.57;56.68;101753.19;5066250;28;19927;-46
2023/08/18 04:55:29;;;;;;;;;;;;;;;22.58;56.84;101764.88;5065174;28;19913;-47
2023/08/18 04:57:55;;;;;;;;;;;;;;;22.58;56.71;101759.44;5065927;28;19913;-45
2023/08/18 05:00:20;;;;;;;;;;;;;;;22.57;56.85;101764.03;5065620;28;19923;-44
2023/08/18 05:02:46;;;;;;;;;;;;;;;22.58;56.85;101763.00;5065604;28;19984;-46
2023/08/18 05:05:12;;;;;;;;;;;;;;;22.58;56.84;101763.00;5064600;28;19913;-44
2023/08/18 05:07:37;;;;;;;;;;;;;;;22.58;57.09;101765.72;5062326;28;20530;-44
2023/08/18 05:10:03;;;;;;;;;;;;;;;22.59;56.90;101770.09;5069418;28;19925;-44
2023/08/18 05:12:28;;;;;;;;;;;;;;;22.58;56.85;101763.00;5064970;28;19928;-45
2023/08/18 05:14:54;;;;;;;;;;;;;;;22.21;57.00;101696.66;5065664;28;19913;-44
2023/08/18 05:17:19;;;;;;;;;;;;;;;22.58;56.97;101757.56;5065676;28;19917;-48
2023/08/18 05:19:44;;;;;;;;;;;;;;;22.59;57.10;101759.25;5064192;28;20373;-46
2023/08/18 05:22:10;;;;;;;;;;;;;;;22.59;57.10;101764.69;5064950;28;20416;-45
2023/08/18 05:24:35;;;;;;;;;;;;;;;22.59;57.05;101755.72;5065036;28;20320;-46
2023/08/18 05:27:00;;;;;;;;;;;;;;;22.58;57.11;101756.72;5064655;28;19995;-44
2023/08/18 05:29:25;;;;;;;;;;;;;;;22.58;57.10;101744.03;5065370;28;19912;-47
2023/08/18 05:31:50;;;;;;;;;;;;;;;22.60;57.38;101741.13;5063325;28;19917;-44
2023/08/18 05:34:16;;;;;;;;;;;;;;;22.59;57.17;101748.41;5065163;28;19962;-44
2023/08/18 05:36:41;;;;;;;;;;;;;;;22.59;57.35;101747.56;5065085;28;19913;-45
2023/08/18 05:39:06;;;;;;;;;;;;;;;22.60;57.59;101733.00;5064995;28;19916;-44
2023/08/18 05:41:31;;;;;;;;;;;;;;;22.59;57.31;101734.88;5064254;28;19917;-46
2023/08/18 05:43:56;;;;;;;;;;;;;;;22.59;57.46;101734.88;5065302;28;19913;-44
2023/08/18 05:46:22;;;;;;;;;;;;;;;22.59;57.43;101728.59;5065015;28;19917;-43
2023/08/18 05:48:47;;;;;;;;;;;;;;;22.59;57.51;101729.44;5064494;28;20404;-46
2023/08/18 05:51:12;;;;;;;;;;;;;;;22.60;57.43;101724.88;5064784;28;19948;-44
2023/08/18 05:53:37;;;;;;;;;;;;;;;22.61;57.32;101729.28;5064729;28;20444;-44
2023/08/18 05:56:02;;;;;;;;;;;;;;;22.60;57.60;101728.44;5064375;28;19921;-43
2023/08/18 05:58:28;;;;;;;;;;;;;;;22.59;57.60;101729.44;5065081;28;19920;-45
2023/08/18 06:00:53;;;;;;;;;;;;;;;22.59;57.43;101720.47;5064343;28;20404;-44
2023/08/18 06:03:21;;;;;;;;;;;;;;;22.61;57.53;101715.75;5064801;28;19967;-45
2023/08/18 06:05:47;;;;;;;;;;;;;;;22.59;57.76;101715.91;5064171;28;19913;-44
2023/08/18 06:08:12;;;;;;;;;;;;;;;22.60;57.66;101716.72;5063001;28;19923;-44
2023/08/18 06:10:37;;;;;;;;;;;;;;;22.60;57.54;101720.31;5063251;28;19943;-46
2023/08/18 06:13:02;;;;;;;;;;;;;;;22.60;57.47;101716.72;5063573;28;19932;-47
2023/08/18 06:15:28;;;;;;;;;;;;;;;22.60;57.67;101719.44;5063947;28;19920;-46
2023/08/18 06:17:53;;;;;;;;;;;;;;;22.60;57.46;101716.72;5064220;28;19982;-44
2023/08/18 06:20:18;;;;;;;;;;;;;;;22.60;57.88;101714.91;5063748;28;19913;-46
2023/08/18 06:22:43;;;;;;;;;;;;;;;22.60;57.71;101711.31;5064181;28;20400;-48
2023/08/18 06:25:09;;;;;;;;;;;;;;;22.60;57.59;101714.03;5053414;28;19986;-48
2023/08/18 06:27:34;;;;;;;;;;;;;;;22.60;57.59;101709.47;5049268;28;19927;-50
2023/08/18 06:29:59;;;;;;;;;;;;;;;22.59;57.74;101712.34;5061756;28;20121;-48
2023/08/18 06:32:24;;;;;;;;;;;;;;;22.59;57.60;101723.19;5062300;28;19939;-47
2023/08/18 06:34:50;;;;;;;;;;;;;;;22.60;57.67;101736.59;5060754;28;19924;-48
2023/08/18 06:37:15;;;;;;;;;;;;;;;22.58;57.37;101727.75;5062262;28;20399;-50
2023/08/18 06:39:40;;;;;;;;;;;;;;;22.59;57.67;101734.03;5062822;28;20016;-44
2023/08/18 06:42:05;;;;;;;;;;;;;;;22.60;57.37;101738.41;5061945;28;20003;-45
2023/08/18 06:44:32;;;;;;;;;;;;;;;22.59;57.29;101731.31;5062022;28;19921;-43
2023/08/18 06:46:57;;;;;;;;;;;;;;;22.59;57.65;101734.03;5059392;28;20429;-45
2023/08/18 06:49:23;;;;;;;;;;;;;;;22.58;57.29;101730.47;5058450;28;19947;-46
2023/08/18 06:51:48;;;;;;;;;;;;;;;22.60;57.24;101733.00;5062570;28;19944;-44
2023/08/18 06:54:13;;;;;;;;;;;;;;;22.58;57.47;101727.75;5060431;28;19913;-46
2023/08/18 06:56:38;;;;;;;;;;;;;;;22.59;57.51;101723.19;5058447;28;19913;-45
2023/08/18 06:59:04;;;;;;;;;;;;;;;22.58;57.22;101718.78;5062559;28;19920;-45
2023/08/18 07:01:30;;;;;;;;;;;;;;;22.59;57.36;101717.75;5059284;28;20294;-44
2023/08/18 07:03:55;;;;;;;;;;;;;;;22.59;57.18;101721.31;5061743;28;19919;-46
2023/08/18 07:06:20;;;;;;;;;;;;;;;22.58;57.42;101713.38;5061729;28;19912;-46
2023/08/18 07:08:45;;;;;;;;;;;;;;;22.58;57.48;101714.22;5061757;28;19917;-47
2023/08/18 07:11:11;;;;;;;;;;;;;;;22.59;57.43;101720.47;5061735;28;19921;-45
2023/08/18 07:13:36;;;;;;;;;;;;;;;22.58;57.36;101711.50;5060907;28;19917;-44
2023/08/18 07:16:02;;;;;;;;;;;;;;;22.58;57.62;101716.06;5060895;28;19921;-45
2023/08/18 07:18:27;;;;;;;;;;;;;;;22.58;57.63;101711.50;5059655;28;20404;-46
2023/08/18 07:20:52;;;;;;;;;;;;;;;22.58;57.50;101718.78;5058180;28;19916;-43
2023/08/18 07:23:18;;;;;;;;;;;;;;;22.59;57.68;101717.75;5062075;28;20001;-45
2023/08/18 07:25:44;;;;;;;;;;;;;;;22.59;57.57;101706.91;5060682;28;19980;-47
2023/08/18 07:28:10;;;;;;;;;;;;;;;22.58;57.68;101705.25;5059391;28;19912;-45
2023/08/18 07:30:36;;;;;;;;;;;;;;;22.59;57.65;101705.06;5057333;28;19960;-46
2023/08/18 07:33:01;;;;;;;;;;;;;;;22.59;57.54;101701.50;5061275;28;19971;-44
2023/08/18 07:35:26;;;;;;;;;;;;;;;22.58;57.67;101703.38;5060298;28;19916;-44
2023/08/18 07:37:52;;;;;;;;;;;;;;;22.59;57.74;101698.78;5058755;28;19948;-49
2023/08/18 07:40:17;;;;;;;;;;;;;;;22.59;57.49;101696.91;5059396;28;19920;-46
2023/08/18 07:42:44;;;;;;;;;;;;;;;22.58;57.81;101695.25;5059623;28;19921;-48
2023/08/18 07:45:09;;;;;;;;;;;;;;;22.59;57.66;101691.50;5065568;28;19920;-45
2023/08/18 07:47:34;;;;;;;;;;;;;;;22.59;57.73;101677.94;5063675;28;19917;-49
2023/08/18 07:49:59;;;;;;;;;;;;;;;22.59;57.65;101686.09;5063735;28;19927;-49
2023/08/18 07:52:25;;;;;;;;;;;;;;;22.58;57.55;101695.25;5064513;28;19940;-49
2023/08/18 07:54:50;;;;;;;;;;;;;;;22.59;57.47;101699.63;5077082;28;19932;-48
2023/08/18 07:57:16;;;;;;;;;;;;;;;22.59;57.84;101705.06;5064538;28;19916;-46
2023/08/18 07:59:41;;;;;;;;;;;;;;;22.59;57.68;101713.19;5063630;28;20586;-47
2023/08/18 08:02:07;;;;;;;;;;;;;;;22.60;57.92;101712.19;5064403;28;19916;-50
2023/08/18 08:04:32;;;;;;;;;;;;;;;22.60;57.72;101711.31;5058498;28;19984;-47
2023/08/18 08:06:57;;;;;;;;;;;;;;;22.59;57.68;101715.91;5066433;28;19936;-46
2023/08/18 08:09:26;;;;;;;;;;;;;;;22.60;57.54;101717.59;5064411;28;20579;-46
2023/08/18 08:11:51;;;;;;;;;;;;;;;22.60;57.67;101714.91;5061225;28;19921;-47
2023/08/18 08:14:19;;;;;;;;;;;;;;;22.61;57.97;101711.16;5064801;28;20395;-45
2023/08/18 08:16:44;;;;;;;;;;;;;;;22.61;57.77;101715.75;5060960;28;19932;-49
2023/08/18 08:19:10;;;;;;;;;;;;;;;22.60;57.86;101704.06;5062472;28;19917;-48
2023/08/18 08:21:36;;;;;;;;;;;;;;;22.61;58.00;101707.59;5064129;28;19991;-45
2023/08/18 08:24:01;;;;;;;;;;;;;;;22.60;57.85;101717.59;5064791;28;19925;-47
2023/08/18 08:26:26;;;;;;;;;;;;;;;22.62;57.78;101707.41;5060973;28;19935;-47
2023/08/18 08:28:51;;;;;;;;;;;;;;;22.61;57.90;101718.44;5063314;28;19948;-49
2023/08/18 08:31:17;;;;;;;;;;;;;;;22.61;57.85;101713.88;5062309;28;19923;-45
2023/08/18 08:33:42;;;;;;;;;;;;;;;22.62;57.71;101717.44;5064185;28;19921;-44
2023/08/18 08:36:07;;;;;;;;;;;;;;;22.61;58.03;101711.16;5064390;28;19920;-46
2023/08/18 08:38:32;;;;;;;;;;;;;;;22.61;57.75;101713.88;5062691;28;19920;-45
2023/08/18 08:40:59;;;;;;;;;;;;;;;22.61;58.03;101716.59;5062494;28;20340;-44
2023/08/18 08:43:24;;;;;;;;;;;;;;;22.62;57.96;101715.56;5064426;28;19916;-46
2023/08/18 08:45:49;;;;;;;;;;;;;;;22.61;57.75;101707.59;5063329;28;19917;-46
2023/08/18 08:48:14;;;;;;;;;;;;;;;22.65;58.04;101714.38;5065136;28;19912;-50
2023/08/18 08:50:40;;;;;;;;;;;;;;;22.68;58.19;101711.28;5097854;28;19988;-49
2023/08/18 08:53:07;;;;;;;;;;;;;;;22.73;57.96;101713.50;5065280;28;19927;-48
2023/08/18 08:55:32;;;;;;;;;;;;;;;22.76;58.13;101727.53;5097561;28;19988;-53
2023/08/18 08:57:57;;;;;;;;;;;;;;;22.78;58.01;101725.50;5081356;28;19913;-54
2023/08/18 09:00:23;;;;;;;;;;;;;;;22.80;58.16;101726.16;5065656;28;19920;-51
2023/08/18 09:02:48;;;;;;;;;;;;;;;22.81;58.00;101721.59;5097829;28;19916;-49
2023/08/18 09:05:14;;;;;;;;;;;;;;;22.82;58.29;101721.44;5065405;28;19912;-55
2023/08/18 09:07:39;;;;;;;;;;;;;;;22.82;57.92;101720.59;5066081;28;19931;-52
2023/08/18 09:10:05;;;;;;;;;;;;;;;22.83;58.31;101719.56;5065324;28;19923;-54
2023/08/18 09:12:30;;;;;;;;;;;;;;;22.84;58.12;101719.38;5065048;28;19917;-54
2023/08/18 09:14:55;;;;;;;;;;;;;;;22.86;58.18;101716.50;5097148;28;19917;-58
2023/08/18 09:17:23;;;;;;;;;;;;;;;22.87;58.13;101720.91;5065449;28;20248;-51
2023/08/18 09:19:49;;;;;;;;;;;;;;;22.87;58.11;101710.06;5064863;28;19955;-50
2023/08/18 09:22:17;;;;;;;;;;;;;;;22.88;58.37;101706.31;5063739;28;20332;-56
2023/08/18 09:24:42;;;;;;;;;;;;;;;22.88;58.64;101703.59;5097398;28;19952;-50
2023/08/18 09:27:08;;;;;;;;;;;;;;;22.87;58.28;101702.75;5097304;28;19924;-54
2023/08/18 09:29:33;;;;;;;;;;;;;;;22.88;58.25;101701.75;5065386;28;19952;-54
2023/08/18 09:31:59;;;;;;;;;;;;;;;22.88;58.49;101696.31;5064788;28;19917;-53
2023/08/18 09:34:24;;;;;;;;;;;;;;;22.90;58.60;101702.47;5096569;28;19948;-58
2023/08/18 09:36:53;;;;;;;;;;;;;;;22.90;58.40;101691.59;5065198;28;19913;-58
2023/08/18 09:39:19;;;;;;;;;;;;;;;22.91;58.60;101690.56;5065365;28;19913;-57
2023/08/18 09:41:49;;;;;;;;;;;;;;;22.93;58.57;101691.22;5063355;28;19913;-57
2023/08/18 09:44:14;;;;;;;;;;;;;;;22.93;58.45;101683.09;5063618;28;19920;-56
2023/08/18 09:46:42;;;;;;;;;;;;;;;22.94;58.87;101676.69;5064494;28;19925;-56
2023/08/18 09:49:07;;;;;;;;;;;;;;;22.94;58.41;101678.53;5096766;28;19920;-57
2023/08/18 09:51:32;;;;;;;;;;;;;;;22.95;58.57;101666.66;5063770;28;19924;-52
2023/08/18 09:53:59;;;;;;;;;;;;;;;22.97;58.64;101675.47;5095472;28;19916;-49
2023/08/18 09:56:25;;;;;;;;;;;;;;;22.97;58.63;101677.31;5096114;28;19938;-50
2023/08/18 09:59:00;;;;;;;;;;;;;;;22.97;58.78;101678.16;5060961;28;19958;-56
2023/08/18 10:01:25;;;;;;;;;;;;;;;22.98;58.74;101673.59;5062924;28;19920;-53
2023/08/18 10:03:50;;;;;;;;;;;;;;;22.99;59.12;101670.72;5064435;28;19927;-54
2023/08/18 10:06:16;;;;;;;;;;;;;;;23.00;58.77;101671.56;5090160;28;19939;-55
2023/08/18 10:08:41;;;;;;;;;;;;;;;23.01;59.08;101673.25;5063618;28;19917;-49
2023/08/18 10:11:07;;;;;;;;;;;;;;;23.01;59.35;101671.38;5063556;28;19912;-57
2023/08/18 10:13:33;;;;;;;;;;;;;;;23.03;59.16;101672.06;5064613;28;20396;-54
2023/08/18 10:15:58;;;;;;;;;;;;;;;23.05;59.05;101671.88;5063391;28;20424;-52
2023/08/18 10:18:24;;;;;;;;;;;;;;;23.06;59.16;101684.41;5063710;28;19920;-54
2023/08/18 10:20:49;;;;;;;;;;;;;;;23.03;59.15;101669.34;5062983;28;19912;-57
2023/08/18 10:23:14;;;;;;;;;;;;;;;23.05;59.29;101659.16;5063843;28;19927;-51
2023/08/18 10:25:39;;;;;;;;;;;;;;;23.06;59.32;101665.41;5062503;28;19912;-47
2023/08/18 10:28:05;;;;;;;;;;;;;;;23.08;59.22;101657.97;5064040;28;19939;-49
2023/08/18 10:30:30;;;;;;;;;;;;;;;23.09;59.20;101667.78;5063792;28;19913;-51
2023/08/18 10:33:00;;;;;;;;;;;;;;;23.09;59.25;101667.78;5064502;28;19921;-48
2023/08/18 10:35:26;;;;;;;;;;;;;;;23.09;59.35;101657.75;5063701;28;19927;-48
2023/08/18 10:37:55;;;;;;;;;;;;;;;23.06;59.31;101660.81;5064099;28;19928;-51
2023/08/18 10:40:22;;;;;;;;;;;;;;;23.06;59.66;101658.13;5063113;28;19978;-50
2023/08/18 10:42:47;;;;;;;;;;;;;;;23.07;59.42;101661.69;5063812;28;19913;-45
2023/08/18 10:45:22;;;;;;;;;;;;;;;23.06;59.57;101657.28;5064024;28;19919;-50
2023/08/18 10:47:47;;;;;;;;;;;;;;;23.07;59.66;101659.00;5062594;28;20693;-46
2023/08/18 10:50:14;;;;;;;;;;;;;;;23.06;59.69;101657.28;5063409;28;19919;-46
2023/08/18 10:52:40;;;;;;;;;;;;;;;23.07;59.48;101661.69;5096104;28;19921;-49
2023/08/18 10:55:05;;;;;;;;;;;;;;;23.07;59.61;101659.00;5063824;28;19916;-48
2023/08/18 10:57:30;;;;;;;;;;;;;;;23.06;59.57;101655.41;5063744;28;20434;-46
2023/08/18 10:59:56;;;;;;;;;;;;;;;23.07;59.61;101650.84;5063636;28;19921;-46
2023/08/18 11:02:21;;;;;;;;;;;;;;;23.07;59.71;101659.00;5063619;28;19912;-45
2023/08/18 11:04:46;;;;;;;;;;;;;;;23.07;59.42;101661.69;5062047;28;19970;-48
2023/08/18 11:07:11;;;;;;;;;;;;;;;23.06;59.37;101647.25;5062403;28;19952;-48
2023/08/18 11:09:36;;;;;;;;;;;;;;;23.07;59.61;101642.72;5095829;28;19917;-48
2023/08/18 11:12:03;;;;;;;;;;;;;;;23.07;59.47;101638.13;5062710;28;19917;-48
2023/08/18 11:14:28;;;;;;;;;;;;;;;23.08;59.65;101634.38;5063721;28;20711;-49
2023/08/18 11:16:53;;;;;;;;;;;;;;;23.07;59.31;101629.16;5063268;28;19916;-46
2023/08/18 11:19:19;;;;;;;;;;;;;;;23.08;59.31;101625.41;5067101;28;19962;-45
2023/08/18 11:21:44;;;;;;;;;;;;;;;23.07;59.41;101616.44;5067213;28;20398;-50
2023/08/18 11:24:09;;;;;;;;;;;;;;;23.08;59.25;101623.53;5067885;28;19916;-49
2023/08/18 11:26:36;;;;;;;;;;;;;;;23.09;59.14;101614.38;5066917;28;19913;-49
2023/08/18 11:29:02;;;;;;;;;;;;;;;23.09;59.24;101617.09;5068009;28;19923;-45
2023/08/18 11:31:27;;;;;;;;;;;;;;;23.09;59.34;101614.38;5066666;28;19921;-51
2023/08/18 11:33:52;;;;;;;;;;;;;;;23.08;59.25;101612.69;5067699;28;19919;-46
2023/08/18 11:36:18;;;;;;;;;;;;;;;23.08;59.36;101607.25;5066857;28;19912;-48
2023/08/18 11:38:43;;;;;;;;;;;;;;;23.10;59.09;101604.34;5065446;28;19923;-51
2023/08/18 11:41:09;;;;;;;;;;;;;;;23.08;59.13;101606.41;5055877;28;19932;-46
2023/08/18 11:43:34;;;;;;;;;;;;;;;23.06;59.42;101598.44;5095566;28;19940;-50
2023/08/18 11:45:59;;;;;;;;;;;;;;;23.04;59.53;101597.78;5093034;28;19924;-50
2023/08/18 11:48:27;;;;;;;;;;;;;;;23.04;59.44;101594.25;5065830;28;19920;-48
2023/08/18 11:50:56;;;;;;;;;;;;;;;23.05;59.76;101588.63;5093184;28;19916;-47
2023/08/18 11:53:23;;;;;;;;;;;;;;;23.06;59.69;101589.47;5066767;28;19917;-48
2023/08/18 11:55:48;;;;;;;;;;;;;;;23.07;59.98;101583.03;5066677;28;19913;-47
2023/08/18 11:58:17;;;;;;;;;;;;;;;23.06;59.81;101575.91;5066597;28;19936;-45
2023/08/18 12:00:43;;;;;;;;;;;;;;;23.08;59.99;101573.88;5066334;28;20400;-49
2023/08/18 12:03:19;;;;;;;;;;;;;;;23.07;60.06;101564.91;5063823;28;19912;-50
2023/08/18 12:05:44;;;;;;;;;;;;;;;23.07;60.11;101564.91;5064527;28;19917;-46
2023/08/18 12:08:10;;;;;;;;;;;;;;;23.08;60.18;101563.88;5063414;28;20018;-50
2023/08/18 12:10:36;;;;;;;;;;;;;;;23.10;60.34;101558.25;5066239;28;20305;-48
2023/08/18 12:13:01;;;;;;;;;;;;;;;23.12;60.40;101558.94;5098149;28;19917;-46
2023/08/18 12:15:26;;;;;;;;;;;;;;;23.13;60.16;101560.59;5066328;28;19916;-46
2023/08/18 12:17:52;;;;;;;;;;;;;;;23.13;60.33;101558.72;5065979;28;19912;-47
2023/08/18 12:20:20;;;;;;;;;;;;;;;23.13;60.40;101561.44;5065143;28;19916;-45
2023/08/18 12:22:47;;;;;;;;;;;;;;;23.14;60.42;101560.41;5066294;28;19976;-49
2023/08/18 12:25:12;;;;;;;;;;;;;;;23.15;60.45;101564.84;5066457;28;19913;-45
2023/08/18 12:27:38;;;;;;;;;;;;;;;23.16;60.23;101557.53;5066430;28;19974;-47